Time;durP1;ratioP1;P1;durP2;ratioP2;P2;SDS_P1;SDS_P2;PMS_P1;PMS_P2;Temp;Humidity;BMP_temperature;BMP_pressure;BME280_temperature;BME280_humidity;BME280_pressure;Samples;Min_cycle;Max_cycle;Signal;HPM_P1;HPM_P2
2023/01/19 00:00:04;;;;;;;20.85;7.93;;;;;;;-7.07;100.00;92766.56;5052969;28;20037;-63
2023/01/19 00:02:31;;;;;;;17.70;6.43;;;;;;;-7.09;100.00;92766.09;5052710;28;20047;-65
2023/01/19 00:04:58;;;;;;;29.10;8.15;;;;;;;-7.06;100.00;92767.34;5052336;28;20412;-66
2023/01/19 00:07:25;;;;;;;22.10;7.63;;;;;;;-7.12;100.00;92772.13;5051267;28;20098;-66
2023/01/19 00:09:51;;;;;;;47.13;11.85;;;;;;;-7.15;100.00;92770.09;5052076;28;20047;-64
2023/01/19 00:12:18;;;;;;;26.67;8.48;;;;;;;-7.47;100.00;92774.41;5052274;28;20045;-65
2023/01/19 00:14:44;;;;;;;19.77;7.20;;;;;;;-7.84;100.00;92777.75;5051836;28;20094;-64
2023/01/19 00:17:11;;;;;;;62.65;12.43;;;;;;;-7.82;100.00;92782.00;5052601;28;20068;-66
2023/01/19 00:19:38;;;;;;;35.90;9.93;;;;;;;-7.64;100.00;92778.81;5051880;28;20493;-63
2023/01/19 00:22:04;;;;;;;23.25;8.02;;;;;;;-7.74;100.00;92776.56;5051525;28;20097;-63
2023/01/19 00:24:32;;;;;;;21.52;7.40;;;;;;;-7.70;100.00;92779.34;5052192;28;20037;-63
2023/01/19 00:27:00;;;;;;;21.70;8.00;;;;;;;-7.62;100.00;92778.50;5051869;28;20044;-63
2023/01/19 00:29:29;;;;;;;22.30;7.40;;;;;;;-7.61;100.00;92777.38;5052226;28;20409;-63
2023/01/19 00:31:56;;;;;;;27.13;8.48;;;;;;;-7.72;100.00;92777.00;5051558;28;20119;-63
2023/01/19 00:34:22;;;;;;;19.38;7.47;;;;;;;-7.76;100.00;92784.09;5050898;28;20401;-64
2023/01/19 00:36:49;;;;;;;18.55;6.90;;;;;;;-7.64;100.00;92778.81;5033793;28;20041;-64
2023/01/19 00:39:16;;;;;;;19.27;6.77;;;;;;;-7.62;100.00;92781.16;5051928;28;20037;-63
2023/01/19 00:44:28;;;;;;;16.95;6.95;;;;;;;-7.63;100.00;92777.69;5052063;28;20059;-64
2023/01/19 00:46:54;;;;;;;30.27;8.52;;;;;;;-7.70;100.00;92782.03;5050859;28;20055;-64
2023/01/19 00:49:21;;;;;;;41.28;10.05;;;;;;;-7.74;100.00;92784.56;5051782;28;20610;-64
2023/01/19 00:51:48;;;;;;;25.73;7.67;;;;;;;-7.79;100.00;92779.41;5050816;28;20041;-65
2023/01/19 00:54:14;;;;;;;19.85;7.22;;;;;;;-7.87;100.00;92778.44;5051781;28;20048;-65
2023/01/19 00:56:41;;;;;;;32.83;12.65;;;;;;;-7.87;100.00;92785.63;5050954;28;20138;-65
2023/01/19 00:59:09;;;;;;;16.83;6.75;;;;;;;-7.92;100.00;92783.94;5051561;28;20041;-65
2023/01/19 01:01:36;;;;;;;16.90;6.65;;;;;;;-7.85;100.00;92780.75;5033184;28;20048;-65
2023/01/19 01:04:12;;;;;;;24.77;7.50;;;;;;;-7.79;100.00;92783.97;5050770;28;20043;-65
2023/01/19 01:06:39;;;;;;;27.33;8.32;;;;;;;-7.77;100.00;92787.09;5049937;28;20057;-65
2023/01/19 01:09:10;;;;;;;27.48;7.97;;;;;;;-7.77;100.00;92787.88;5049801;28;20451;-65
2023/01/19 01:11:41;;;;;;;18.20;6.20;;;;;;;-7.99;100.00;92786.34;5050682;28;20405;-65
2023/01/19 01:14:10;;;;;;;15.57;5.63;;;;;;;-7.84;100.00;92799.06;5051538;28;20078;-65
2023/01/19 01:16:37;;;;;;;14.53;5.20;;;;;;;-7.98;100.00;92787.91;5050768;28;20055;-65
2023/01/19 01:19:04;;;;;;;18.67;6.40;;;;;;;-7.98;100.00;92795.13;5051168;28;20409;-65
2023/01/19 01:21:30;;;;;;;18.27;6.50;;;;;;;-8.24;100.00;92788.13;5051021;28;20049;-65
2023/01/19 01:23:57;;;;;;;20.08;6.30;;;;;;;-8.11;100.00;92791.63;5050166;28;20059;-65
2023/01/19 01:26:24;;;;;;;17.73;6.68;;;;;;;-8.05;100.00;92791.13;5033448;28;20398;-64
2023/01/19 01:28:53;;;;;;;16.00;5.30;;;;;;;-7.94;100.00;92798.69;5050657;28;20049;-65
2023/01/19 01:31:20;;;;;;;19.13;6.20;;;;;;;-8.00;100.00;92800.00;5050852;28;20051;-64
2023/01/19 01:33:46;;;;;;;25.33;8.02;;;;;;;-8.08;100.00;92801.63;5050539;28;20051;-65
2023/01/19 01:36:13;;;;;;;20.25;7.47;;;;;;;-8.25;100.00;92805.19;5050628;28;20057;-65
2023/01/19 01:38:41;;;;;;;19.58;7.18;;;;;;;-8.25;100.00;92802.53;5050348;28;20146;-65
2023/01/19 01:41:08;;;;;;;15.57;5.97;;;;;;;-8.20;100.00;92812.22;5050875;28;20049;-65
2023/01/19 01:43:44;;;;;;;16.52;6.60;;;;;;;-8.38;100.00;92806.25;5050531;28;20041;-65
2023/01/19 01:46:14;;;;;;;20.77;6.95;;;;;;;-8.50;100.00;92805.09;5050695;28;20040;-65
2023/01/19 01:48:45;;;;;;;13.65;6.43;;;;;;;-8.40;100.00;92813.78;5050044;28;20114;-65
2023/01/19 01:51:24;;;;;;;15.82;6.35;;;;;;;-8.37;100.00;92813.91;5050231;28;20398;-65
2023/01/19 01:54:13;;;;;;;16.40;6.77;;;;;;;-8.49;100.00;92814.66;5049769;28;20041;-65
2023/01/19 01:56:45;;;;;;;15.80;5.55;;;;;;;-8.61;100.00;92814.56;5049926;28;20048;-65
2023/01/19 01:59:33;;;;;;;16.35;6.15;;;;;;;-8.58;100.00;92813.13;5050521;28;20106;-65
2023/01/19 02:05:11;;;;;;;14.38;5.57;;;;;;;-8.65;100.00;92819.75;5049487;28;20590;-65
2023/01/19 02:13:29;;;;;;;12.05;5.55;;;;;;;-8.63;100.00;92819.44;5050230;28;20048;-65
2023/01/19 02:16:01;;;;;;;15.52;5.20;;;;;;;-8.61;100.00;92819.09;5049202;28;20041;-66
2023/01/19 02:18:30;;;;;;;16.00;6.07;;;;;;;-8.65;100.00;92817.09;5050083;28;20053;-64
2023/01/19 02:20:56;;;;;;;12.47;5.27;;;;;;;-8.71;100.00;92818.38;5049687;28;20413;-65
2023/01/19 02:23:51;;;;;;;14.57;5.70;;;;;;;-8.82;100.00;92813.75;5049473;28;20052;-65
2023/01/19 02:26:33;;;;;;;14.43;5.43;;;;;;;-8.74;100.00;92818.25;5045049;28;20662;-66
2023/01/19 02:29:03;;;;;;;11.70;5.50;;;;;;;-8.73;100.00;92814.47;5048913;28;21578;-65
2023/01/19 02:31:32;;;;;;;16.33;5.53;;;;;;;-8.74;100.00;92819.00;5049987;28;20048;-65
2023/01/19 02:34:00;;;;;;;12.00;4.53;;;;;;;-8.79;100.00;92821.88;5049356;28;20178;-65
2023/01/19 02:36:35;;;;;;;13.02;4.97;;;;;;;-8.89;100.00;92817.69;5050105;28;20047;-65
2023/01/19 02:39:04;;;;;;;14.50;5.07;;;;;;;-8.92;100.00;92818.31;5049297;28;20844;-65
2023/01/19 02:41:38;;;;;;;11.38;4.50;;;;;;;-8.86;100.00;92829.56;5049870;28;20256;-65
2023/01/19 02:44:08;;;;;;;11.35;4.68;;;;;;;-8.88;100.00;92829.88;5049318;28;21534;-65
2023/01/19 02:46:36;;;;;;;11.20;4.10;;;;;;;-8.87;100.00;92828.78;5049588;28;20072;-65
2023/01/19 02:49:03;;;;;;;11.48;4.30;;;;;;;-8.89;100.00;92830.97;5049934;28;20049;-65
2023/01/19 02:51:30;;;;;;;12.98;4.97;;;;;;;-8.82;100.00;92830.47;5050119;28;20489;-65
2023/01/19 02:54:13;;;;;;;16.05;5.20;;;;;;;-8.89;100.00;92830.97;5049425;28;20389;-65
2023/01/19 02:56:52;;;;;;;16.83;5.63;;;;;;;-8.97;100.00;92831.00;5048668;28;20416;-65
2023/01/19 02:59:32;;;;;;;12.73;4.23;;;;;;;-9.14;100.00;92839.84;5049806;28;20059;-65
2023/01/19 03:02:07;;;;;;;10.13;4.30;;;;;;;-9.21;100.00;92836.88;5048706;28;20865;-66
2023/01/19 03:05:00;;;;;;;10.13;4.47;;;;;;;-9.26;100.00;92838.63;5049346;28;20053;-65
2023/01/19 03:07:51;;;;;;;11.77;4.35;;;;;;;-9.27;100.00;92838.97;5008088;28;20053;-65
2023/01/19 03:10:59;;;;;;;11.23;4.50;;;;;;;-9.19;100.00;92842.66;5048614;28;20185;-65
2023/01/19 03:13:30;;;;;;;10.07;4.03;;;;;;;-9.07;100.00;92846.22;5038399;28;20045;-65
2023/01/19 03:16:20;;;;;;;11.65;4.32;;;;;;;-9.12;100.00;92851.72;5049331;28;20048;-65
2023/01/19 03:19:00;;;;;;;11.82;4.53;;;;;;;-8.96;100.00;92857.28;5049091;28;20041;-65
2023/01/19 03:21:29;;;;;;;10.98;4.43;;;;;;;-8.85;100.00;92850.50;5049932;28;20059;-65
2023/01/19 03:24:00;;;;;;;11.57;4.63;;;;;;;-8.76;100.00;92853.13;5049217;28;20041;-65
2023/01/19 03:26:31;;;;;;;11.37;4.90;;;;;;;-8.64;100.00;92849.78;5031444;28;20401;-65
2023/01/19 03:29:01;;;;;;;11.38;4.10;;;;;;;-8.84;100.00;92854.72;5034276;28;20045;-65
2023/01/19 03:31:30;;;;;;;11.63;4.75;;;;;;;-8.76;100.00;92852.34;5053136;28;20052;-65
2023/01/19 03:34:02;;;;;;;12.07;4.78;;;;;;;-8.55;100.00;92855.03;5052823;28;20404;-65
2023/01/19 03:36:33;;;;;;;15.23;5.75;;;;;;;-8.53;100.00;92856.28;5053428;28;20413;-65
2023/01/19 03:39:03;;;;;;;13.83;5.63;;;;;;;-8.50;100.00;92849.53;5050952;28;20790;-66
2023/01/19 03:41:33;;;;;;;13.45;5.10;;;;;;;-8.67;100.00;92851.22;5053075;28;20605;-65
2023/01/19 03:44:00;;;;;;;13.57;4.78;;;;;;;-9.16;100.00;92848.13;5052025;28;20803;-65
2023/01/19 03:46:27;;;;;;;13.40;5.82;;;;;;;-9.30;100.00;92855.53;5052970;28;20130;-65
2023/01/19 03:48:56;;;;;;;15.43;5.35;;;;;;;-9.24;100.00;92859.56;5052596;28;20094;-66
2023/01/19 03:51:23;;;;;;;13.07;5.00;;;;;;;-9.51;100.00;92853.56;5040106;28;20051;-65
2023/01/19 03:53:49;;;;;;;12.93;5.22;;;;;;;-9.41;100.00;92857.75;5052561;28;20098;-65
2023/01/19 03:56:22;;;;;;;13.93;5.60;;;;;;;-9.25;100.00;92856.13;5052766;28;20071;-65
2023/01/19 03:58:50;;;;;;;13.48;5.53;;;;;;;-9.15;100.00;92857.69;5052305;28;20448;-65
2023/01/19 04:01:21;;;;;;;15.20;5.22;;;;;;;-9.12;100.00;92851.72;5052794;28;20071;-65
2023/01/19 04:03:50;;;;;;;14.13;5.13;;;;;;;-9.24;100.00;92857.69;5052135;28;20048;-65
2023/01/19 04:06:18;;;;;;;12.07;5.25;;;;;;;-9.24;100.00;92857.69;5052304;28;20044;-65
2023/01/19 04:08:47;;;;;;;15.82;5.38;;;;;;;-9.28;100.00;92859.41;5052106;28;20053;-66
2023/01/19 04:11:14;;;;;;;14.48;5.57;;;;;;;-9.41;100.00;92860.41;5052506;28;20527;-65
2023/01/19 04:13:41;;;;;;;12.75;5.43;;;;;;;-9.36;100.00;92860.22;5051930;28;20178;-66
2023/01/19 04:16:08;;;;;;;16.33;5.33;;;;;;;-9.30;100.00;92861.63;5052559;28;20600;-65
2023/01/19 04:18:35;;;;;;;14.68;5.53;;;;;;;-9.39;100.00;92863.53;5051870;28;20045;-65
2023/01/19 04:21:04;;;;;;;13.43;5.30;;;;;;;-9.55;100.00;92868.56;5052673;28;20047;-65
2023/01/19 04:23:32;;;;;;;12.38;5.00;;;;;;;-9.63;100.00;92856.09;5052015;28;20555;-65
2023/01/19 04:26:01;;;;;;;12.07;4.97;;;;;;;-9.61;100.00;92863.75;5051137;28;20045;-65
2023/01/19 04:28:28;;;;;;;15.03;5.33;;;;;;;-9.54;100.00;92864.03;5052106;28;20053;-65
2023/01/19 04:30:55;;;;;;;12.45;5.30;;;;;;;-9.60;100.00;92866.06;5034001;28;20067;-66
2023/01/19 04:33:23;;;;;;;20.70;6.10;;;;;;;-9.52;100.00;92867.91;5052098;28;20490;-65
2023/01/19 04:35:51;;;;;;;16.98;5.22;;;;;;;-9.57;100.00;92870.75;5051641;28;20045;-65
2023/01/19 04:38:20;;;;;;;14.27;5.88;;;;;;;-9.60;100.00;92870.59;5050969;28;20083;-65
2023/01/19 04:40:48;;;;;;;14.70;5.73;;;;;;;-9.64;100.00;92867.78;5050792;28;20047;-65
2023/01/19 04:43:15;;;;;;;16.50;4.93;;;;;;;-9.71;100.00;92864.84;5051934;28;20041;-65
2023/01/19 04:45:45;;;;;;;13.45;5.32;;;;;;;-9.67;100.00;92871.09;5051255;28;20089;-65
2023/01/19 04:48:13;;;;;;;13.20;5.15;;;;;;;-9.69;100.00;92866.09;5051803;28;20037;-66
2023/01/19 04:50:40;;;;;;;12.98;5.20;;;;;;;-9.68;100.00;92866.84;5033338;28;20036;-65
2023/01/19 04:53:07;;;;;;;13.03;5.03;;;;;;;-9.73;100.00;92867.81;5051732;28;20413;-66
2023/01/19 04:55:36;;;;;;;15.43;5.40;;;;;;;-9.66;100.00;92876.09;5051264;28;20106;-65
2023/01/19 04:58:03;;;;;;;16.75;6.45;;;;;;;-9.71;100.00;92875.47;5051529;28;20041;-66
2023/01/19 05:00:31;;;;;;;13.85;5.22;;;;;;;-9.72;100.00;92869.34;5051591;28;20435;-66
2023/01/19 05:02:57;;;;;;;16.88;6.10;;;;;;;-9.73;100.00;92869.69;5049423;28;20040;-66
2023/01/19 05:05:26;;;;;;;13.90;5.77;;;;;;;-9.70;100.00;92884.97;5042619;28;20480;-65
2023/01/19 05:07:53;;;;;;;21.00;8.13;;;;;;;-9.65;100.00;92882.16;5041538;28;20102;-64
2023/01/19 05:10:20;;;;;;;15.02;6.63;;;;;;;-9.57;100.00;92883.25;5040882;28;20059;-65
2023/01/19 05:12:47;;;;;;;15.88;6.30;;;;;;;-9.66;100.00;92881.41;5046854;28;20055;-65
2023/01/19 05:15:14;;;;;;;12.98;5.32;;;;;;;-9.78;100.00;92886.53;5051327;28;20401;-65
2023/01/19 05:17:41;;;;;;;14.00;5.60;;;;;;;-9.81;100.00;92875.78;5050732;28;20444;-65
2023/01/19 05:20:10;;;;;;;15.48;6.22;;;;;;;-9.86;100.00;92887.31;5051033;28;20485;-66
2023/01/19 05:22:40;;;;;;;12.50;5.72;;;;;;;-9.80;100.00;92880.75;5049856;28;20053;-66
2023/01/19 05:25:07;;;;;;;17.92;6.32;;;;;;;-9.83;100.00;92885.94;5050945;28;20041;-65
2023/01/19 05:27:35;;;;;;;20.67;7.50;;;;;;;-9.88;100.00;92879.69;5050522;28;20410;-65
2023/01/19 05:30:03;;;;;;;17.47;6.90;;;;;;;-9.81;100.00;92887.19;5050795;28;20086;-66
2023/01/19 05:32:31;;;;;;;15.65;6.05;;;;;;;-9.72;100.00;92887.16;5051048;28;20051;-66
2023/01/19 05:34:58;;;;;;;29.00;8.63;;;;;;;-9.73;100.00;92886.41;5052848;28;20045;-65
2023/01/19 05:37:25;;;;;;;19.25;7.45;;;;;;;-9.81;100.00;92881.88;5049558;28;20052;-65
2023/01/19 05:39:52;;;;;;;22.13;8.30;;;;;;;-9.81;100.00;92895.16;5050099;28;20067;-65
2023/01/19 05:42:19;;;;;;;34.33;11.17;;;;;;;-9.77;100.00;92890.78;5050393;28;20048;-65
2023/01/19 05:44:46;;;;;;;16.15;6.30;;;;;;;-9.75;100.00;92893.91;5049540;28;20063;-65
2023/01/19 05:47:13;;;;;;;17.45;6.47;;;;;;;-9.82;100.00;92896.22;5050556;28;20570;-65
2023/01/19 05:49:39;;;;;;;19.30;6.35;;;;;;;-9.82;100.00;92898.88;5049733;28;20503;-66
2023/01/19 05:52:06;;;;;;;13.35;5.75;;;;;;;-9.81;100.00;92897.81;5050297;28;20500;-65
2023/01/19 05:54:33;;;;;;;19.57;7.83;;;;;;;-9.78;100.00;92897.16;5050571;28;20540;-65
2023/01/19 05:57:00;;;;;;;18.95;7.10;;;;;;;-9.83;100.00;92900.00;5050053;28;20048;-65
2023/01/19 05:59:27;;;;;;;16.90;7.05;;;;;;;-9.81;100.00;92908.41;5032504;28;20047;-66
2023/01/19 06:01:53;;;;;;;17.33;6.32;;;;;;;-10.08;100.00;92910.28;5048954;28;20425;-66
2023/01/19 06:04:20;;;;;;;17.67;7.25;;;;;;;-10.04;100.00;92910.44;5050215;28;20041;-65
2023/01/19 06:06:48;;;;;;;22.03;7.80;;;;;;;-10.00;100.00;92914.03;5049968;28;20045;-65
2023/01/19 06:09:16;;;;;;;16.83;6.80;;;;;;;-9.87;100.00;92917.63;5050339;28;20045;-65
2023/01/19 06:11:43;;;;;;;21.38;8.05;;;;;;;-9.96;100.00;92920.28;5049577;28;20436;-65
2023/01/19 06:14:10;;;;;;;22.42;7.95;;;;;;;-10.03;100.00;92922.63;5049953;28;20470;-65
2023/01/19 06:16:37;;;;;;;19.23;7.70;;;;;;;-9.96;100.00;92912.34;5049321;28;20053;-65
2023/01/19 06:19:04;;;;;;;25.13;8.90;;;;;;;-9.93;100.00;92917.00;5050372;28;20071;-65
2023/01/19 06:21:31;;;;;;;20.02;8.45;;;;;;;-9.91;100.00;92919.34;5050061;28;20049;-65
2023/01/19 06:23:58;;;;;;;23.48;8.85;;;;;;;-10.10;100.00;92925.75;5049363;28;20045;-65
2023/01/19 06:26:25;;;;;;;51.25;15.45;;;;;;;-10.06;100.00;92931.19;5049341;28;20058;-65
2023/01/19 06:28:51;;;;;;;39.13;12.32;;;;;;;-9.99;100.00;92926.22;5049622;28;20134;-66
2023/01/19 06:31:18;;;;;;;31.03;9.77;;;;;;;-10.18;100.00;92933.69;5049920;28;20048;-65
2023/01/19 06:33:45;;;;;;;22.40;7.95;;;;;;;-10.16;100.00;92934.94;5049390;28;20052;-65
2023/01/19 06:36:12;;;;;;;17.25;7.13;;;;;;;-10.08;100.00;92936.03;5049760;28;20048;-65
2023/01/19 06:38:39;;;;;;;20.33;7.13;;;;;;;-10.10;100.00;92938.22;5049298;28;20041;-65
2023/01/19 06:41:06;;;;;;;19.17;7.53;;;;;;;-10.08;100.00;92939.47;5049871;28;20040;-64
2023/01/19 06:43:32;;;;;;;16.97;7.57;;;;;;;-10.20;100.00;92941.97;5031984;28;20427;-66
2023/01/19 06:45:59;;;;;;;18.02;7.07;;;;;;;-10.26;100.00;92946.63;5031651;28;20471;-65
2023/01/19 06:48:26;;;;;;;19.98;7.82;;;;;;;-10.22;100.00;92951.31;5049896;28;20045;-66
2023/01/19 06:50:53;;;;;;;15.85;6.93;;;;;;;-10.34;100.00;92949.28;5049463;28;20040;-65
2023/01/19 06:53:22;;;;;;;20.25;7.70;;;;;;;-10.27;100.00;92950.38;5049747;28;20117;-66
2023/01/19 06:55:48;;;;;;;17.57;6.83;;;;;;;-10.21;100.00;92951.00;5048651;28;20121;-65
2023/01/19 06:58:16;;;;;;;14.40;6.10;;;;;;;-10.10;100.00;92956.78;5049680;28;20123;-65
2023/01/19 07:00:42;;;;;;;14.18;6.03;;;;;;;-10.20;100.00;92960.53;5048823;28;20040;-67
2023/01/19 07:03:18;;;;;;;17.92;6.30;;;;;;;-10.33;100.00;92964.13;5051475;28;20113;-65
2023/01/19 07:05:45;;;;;;;17.20;7.10;;;;;;;-10.29;100.00;92965.81;5035172;28;20041;-65
2023/01/19 07:08:11;;;;;;;19.33;7.30;;;;;;;-10.16;100.00;92968.63;5052402;28;20091;-65
2023/01/19 07:10:38;;;;;;;20.63;8.75;;;;;;;-10.16;100.00;92961.47;5053244;28;20048;-65
2023/01/19 07:13:25;;;;;;;14.88;7.05;;;;;;;-10.18;100.00;92962.84;5052653;28;20048;-65
2023/01/19 07:15:51;;;;;;;18.17;6.90;;;;;;;-10.22;100.00;92964.56;5053050;28;20048;-65
2023/01/19 07:18:18;;;;;;;19.85;8.27;;;;;;;-10.11;100.00;92961.31;5035625;28;20053;-66
2023/01/19 07:20:47;;;;;;;17.97;7.30;;;;;;;-10.05;100.00;92964.59;5052934;28;20404;-66
2023/01/19 07:23:15;;;;;;;17.08;6.90;;;;;;;-10.00;100.00;92961.78;5035440;28;20533;-65
2023/01/19 07:25:45;;;;;;;15.88;6.45;;;;;;;-9.92;100.00;92968.19;5052833;28;20063;-65
2023/01/19 07:28:14;;;;;;;17.55;6.50;;;;;;;-9.88;100.00;92961.97;5035725;28;20037;-65
2023/01/19 07:30:42;;;;;;;16.95;6.90;;;;;;;-9.77;100.00;92966.97;5052319;28;20041;-66
2023/01/19 07:33:09;;;;;;;18.67;6.13;;;;;;;-9.77;100.00;92964.34;5052937;28;20102;-65
2023/01/19 07:35:35;;;;;;;20.40;6.20;;;;;;;-9.72;100.00;92969.47;5052642;28;20154;-65
2023/01/19 07:38:03;;;;;;;19.75;7.28;;;;;;;-9.80;100.00;92970.25;5053190;28;20041;-65
2023/01/19 07:40:29;;;;;;;17.55;6.68;;;;;;;-9.69;100.00;92966.97;5052421;28;20516;-65
2023/01/19 07:42:56;;;;;;;18.92;7.25;;;;;;;-9.68;100.00;92973.88;5052730;28;20071;-65
2023/01/19 07:45:23;;;;;;;20.57;7.23;;;;;;;-9.56;100.00;92981.19;5053046;28;20049;-66
2023/01/19 07:47:49;;;;;;;22.10;7.93;;;;;;;-9.53;100.00;92987.75;5034641;28;20029;-65
2023/01/19 07:50:20;;;;;;;23.17;7.70;;;;;;;-9.46;100.00;92985.41;5052902;28;20041;-64
2023/01/19 07:52:49;;;;;;;22.85;8.43;;;;;;;-9.49;100.00;92986.03;5052252;28;20045;-66
2023/01/19 07:55:16;;;;;;;27.77;10.20;;;;;;;-9.63;100.00;92991.50;5052502;28;20053;-66
2023/01/19 07:57:43;;;;;;;25.33;9.13;;;;;;;-9.50;100.00;92993.22;5052162;28;20428;-65
2023/01/19 08:00:13;;;;;;;21.60;8.45;;;;;;;-9.36;100.00;92993.06;5052783;28;20033;-65
2023/01/19 08:02:40;;;;;;;22.25;8.70;;;;;;;-9.57;100.00;92994.78;5039223;28;20131;-66
2023/01/19 08:05:07;;;;;;;22.17;8.38;;;;;;;-9.13;100.00;92992.91;5052803;28;20037;-65
2023/01/19 08:07:33;;;;;;;22.45;8.77;;;;;;;-7.39;100.00;92993.94;5052429;28;20057;-65
2023/01/19 08:10:00;;;;;;;23.37;9.63;;;;;;;-4.77;86.59;92988.75;5051650;28;20811;-65
2023/01/19 08:12:27;;;;;;;26.88;10.13;;;;;;;-2.90;73.49;92985.81;5052456;28;20063;-67
2023/01/19 08:14:53;;;;;;;18.98;8.73;;;;;;;-0.67;66.67;92980.09;5050133;28;20044;-65
2023/01/19 08:17:20;;;;;;;23.25;8.90;;;;;;;-1.01;62.85;92987.38;5051227;28;20048;-65
2023/01/19 08:19:47;;;;;;;19.60;8.35;;;;;;;-0.34;58.59;92988.53;5051643;28;20049;-65
2023/01/19 08:22:13;;;;;;;22.10;9.30;;;;;;;-2.90;62.68;92993.88;5052049;28;20063;-65
2023/01/19 08:24:40;;;;;;;22.48;10.18;;;;;;;-1.36;63.60;92990.38;5051752;28;20048;-66
2023/01/19 08:27:08;;;;;;;21.73;9.70;;;;;;;1.31;55.14;92982.47;5051584;28;20743;-65
2023/01/19 08:29:35;;;;;;;20.20;9.35;;;;;;;1.59;52.19;92981.78;5051916;28;20699;-65
2023/01/19 08:32:02;;;;;;;20.58;8.73;;;;;;;3.65;47.36;92977.81;5051924;28;20044;-66
2023/01/19 08:34:29;;;;;;;17.80;8.60;;;;;;;4.68;45.45;92972.91;5051661;28;20045;-65
2023/01/19 08:36:57;;;;;;;18.23;9.15;;;;;;;5.06;42.43;92975.69;5051507;28;20041;-66
2023/01/19 08:39:24;;;;;;;18.23;9.65;;;;;;;2.91;44.85;92980.34;5051956;28;20053;-65
2023/01/19 08:41:51;;;;;;;18.73;9.20;;;;;;;0.96;51.43;92972.25;5051397;28;20409;-65
2023/01/19 08:44:18;;;;;;;18.58;8.90;;;;;;;-0.25;54.77;92984.41;5051458;28;20109;-66
2023/01/19 08:46:46;;;;;;;15.47;7.67;;;;;;;-0.64;58.79;92986.69;5051448;28;20102;-65
2023/01/19 08:49:13;;;;;;;16.08;7.80;;;;;;;0.12;57.14;92989.00;5051837;28;20045;-65
2023/01/19 08:51:39;;;;;;;14.50;7.30;;;;;;;-1.56;62.36;92989.69;5051212;28;20045;-64
2023/01/19 08:54:06;;;;;;;18.88;8.02;;;;;;;-4.19;73.81;93004.41;5051920;28;20043;-64
2023/01/19 08:56:33;;;;;;;19.52;7.20;;;;;;;-4.13;78.48;93001.13;5051373;28;20044;-65
2023/01/19 08:58:59;;;;;;;15.83;7.30;;;;;;;-3.58;76.66;93003.16;5050843;28;20279;-65
2023/01/19 09:01:35;;;;;;;20.73;7.82;;;;;;;-4.31;80.25;93002.56;5051109;28;20045;-64
2023/01/19 09:04:03;;;;;;;29.38;11.18;;;;;;;-4.42;80.66;93005.00;5051200;28;20037;-65
2023/01/19 09:06:29;;;;;;;28.08;10.70;;;;;;;-4.91;81.93;93003.31;5051186;28;20053;-64
2023/01/19 09:08:56;;;;;;;24.50;9.52;;;;;;;-4.52;84.34;93013.53;5050800;28;20393;-65
2023/01/19 09:11:23;;;;;;;25.37;8.63;;;;;;;-4.14;81.58;93012.19;5051325;28;20060;-65
2023/01/19 09:13:50;;;;;;;19.60;7.47;;;;;;;-4.27;82.91;93008.78;5050704;28;20071;-65
2023/01/19 09:16:16;;;;;;;16.52;7.38;;;;;;;-3.88;83.07;93004.41;5049973;28;20071;-66
2023/01/19 09:18:44;;;;;;;17.15;6.53;;;;;;;-3.68;82.33;93007.13;5050699;28;20384;-65
2023/01/19 09:21:12;;;;;;;14.38;5.45;;;;;;;-3.86;84.90;93006.75;5051305;28;20396;-65
2023/01/19 09:23:39;;;;;;;17.90;5.67;;;;;;;-4.06;88.21;93012.03;5050376;28;21689;-65
2023/01/19 09:26:06;;;;;;;13.60;5.28;;;;;;;-4.06;89.12;93009.34;5050315;28;20408;-65
2023/01/19 09:28:33;;;;;;;14.55;6.13;;;;;;;-4.40;90.54;93010.00;5051125;28;20098;-65
2023/01/19 09:31:05;;;;;;;14.25;5.88;;;;;;;-3.73;89.25;93013.56;5050066;28;20733;-65
2023/01/19 09:33:32;;;;;;;13.60;5.68;;;;;;;-2.81;85.38;93010.56;5033381;28;20048;-65
2023/01/19 09:36:00;;;;;;;13.80;5.47;;;;;;;-3.54;85.62;93014.75;5050352;28;21401;-65
2023/01/19 09:38:30;;;;;;;13.55;5.95;;;;;;;-3.05;85.00;93011.59;5050560;28;20110;-65
2023/01/19 09:40:58;;;;;;;16.23;6.40;;;;;;;-2.17;82.73;93007.50;5050053;28;20397;-65
2023/01/19 09:43:46;;;;;;;17.75;6.97;;;;;;;-0.76;76.51;92997.72;5050683;28;20071;-65
2023/01/19 09:46:39;;;;;;;18.85;7.85;;;;;;;-0.16;70.04;92986.81;5049442;28;20610;-65
2023/01/19 09:49:37;;;;;;;16.57;7.13;;;;;;;0.01;69.20;93000.84;5049588;28;20171;-66
2023/01/19 09:52:04;;;;;;;15.82;6.93;;;;;;;-0.07;68.42;93003.47;5045197;28;20041;-65
2023/01/19 09:54:43;;;;;;;19.80;8.80;;;;;;;0.13;70.41;92997.88;5050489;28;20309;-66
2023/01/19 09:57:11;;;;;;;14.10;5.38;;;;;;;-2.21;75.93;93007.47;5049543;28;20063;-66
2023/01/19 09:59:38;;;;;;;14.40;7.18;;;;;;;-0.68;77.08;93008.19;5049916;28;20076;-66
2023/01/19 10:02:32;;;;;;;13.57;6.63;;;;;;;-0.70;72.65;92996.25;5050468;28;20114;-65
2023/01/19 10:05:04;;;;;;;14.82;6.40;;;;;;;-2.00;79.29;93009.72;5049713;28;20398;-66
2023/01/19 10:07:33;;;;;;;14.85;6.80;;;;;;;-1.99;81.02;92999.75;5050375;28;20048;-65
2023/01/19 10:10:27;;;;;;;16.55;7.10;;;;;;;0.21;72.14;92991.38;5049108;28;20738;-66
2023/01/19 10:13:34;;;;;;;15.48;6.78;;;;;;;3.88;60.72;92990.13;5047624;28;20562;-66
2023/01/19 10:16:38;;;;;;;17.43;8.93;;;;;;;5.29;53.19;92985.94;5031713;28;20593;-66
2023/01/19 10:19:19;;;;;;;14.10;7.05;;;;;;;5.53;50.34;92981.41;5031796;28;20383;-66
2023/01/19 10:21:48;;;;;;;15.85;8.20;;;;;;;6.33;48.61;92983.94;5049294;28;20052;-66
2023/01/19 10:24:21;;;;;;;16.30;7.93;;;;;;;9.05;44.23;92977.16;5049796;28;20121;-66
2023/01/19 10:26:51;;;;;;;13.43;8.25;;;;;;;10.19;40.74;92973.34;5049528;28;20045;-66
2023/01/19 10:29:29;;;;;;;14.70;8.00;;;;;;;10.94;37.53;92973.06;5049862;28;20051;-66
2023/01/19 10:32:18;;;;;;;15.80;8.60;;;;;;;7.49;42.19;92989.06;5049534;28;20047;-66
2023/01/19 10:34:46;;;;;;;15.75;8.13;;;;;;;7.61;42.65;92988.44;5049223;28;20405;-66
2023/01/19 10:37:16;;;;;;;15.32;8.50;;;;;;;6.71;43.89;92989.97;5049275;28;20041;-66
2023/01/19 10:39:45;;;;;;;16.02;8.82;;;;;;;6.52;45.85;92986.00;5049273;28;20063;-66
2023/01/19 10:42:14;;;;;;;14.50;8.10;;;;;;;5.17;48.95;92984.50;5049496;28;20041;-66
2023/01/19 10:44:44;;;;;;;15.02;8.10;;;;;;;5.19;48.19;92978.66;5048937;28;20045;-66
2023/01/19 10:47:18;;;;;;;13.35;7.43;;;;;;;3.64;54.32;92972.78;5049277;28;20112;-66
2023/01/19 10:49:47;;;;;;;15.43;7.35;;;;;;;2.06;59.03;92975.72;5047683;28;20109;-65
2023/01/19 10:52:31;;;;;;;14.38;7.05;;;;;;;2.28;58.77;92969.16;5049867;28;20037;-65
2023/01/19 10:55:01;;;;;;;12.40;6.43;;;;;;;2.71;59.48;92980.00;5049284;28;20045;-66
2023/01/19 10:57:36;;;;;;;12.77;6.18;;;;;;;3.75;56.03;92968.84;5049784;28;20075;-65
2023/01/19 11:00:05;;;;;;;17.50;7.00;;;;;;;4.99;52.76;92971.09;5048922;28;21508;-66
2023/01/19 11:02:32;;;;;;;12.88;6.70;;;;;;;6.74;46.70;92970.06;5049767;28;20409;-66
2023/01/19 11:05:18;;;;;;;15.80;6.40;;;;;;;7.18;45.37;92965.44;5049323;28;20045;-66
2023/01/19 11:07:44;;;;;;;12.07;6.60;;;;;;;7.80;44.07;92965.81;5031121;28;20048;-66
2023/01/19 11:10:14;;;;;;;14.50;6.50;;;;;;;5.18;50.30;92958.84;5049490;28;20037;-66
2023/01/19 11:12:43;;;;;;;12.00;6.45;;;;;;;3.89;52.74;92961.81;5049098;28;20455;-66
2023/01/19 11:15:22;;;;;;;15.50;6.38;;;;;;;3.33;54.69;92956.25;5031376;28;20045;-66
2023/01/19 11:17:49;;;;;;;13.75;6.70;;;;;;;3.93;53.47;92954.44;5049178;28;20040;-66
2023/01/19 11:20:29;;;;;;;14.77;5.83;;;;;;;1.75;59.17;92959.81;5049540;28;20045;-66
2023/01/19 11:23:14;;;;;;;16.48;7.25;;;;;;;2.28;61.33;92954.88;5047799;28;20070;-66
2023/01/19 11:25:45;;;;;;;15.18;5.90;;;;;;;0.05;67.38;92950.41;5048728;28;20400;-66
2023/01/19 11:28:24;;;;;;;14.90;8.52;;;;;;;2.15;65.31;92949.84;5031398;28;20037;-65
2023/01/19 11:30:56;;;;;;;12.32;5.95;;;;;;;1.64;64.62;92955.53;5048709;28;20079;-65
2023/01/19 11:33:34;;;;;;;11.83;6.13;;;;;;;3.05;61.59;92955.16;5019304;28;20389;-66
2023/01/19 11:36:25;;;;;;;12.07;6.30;;;;;;;1.56;63.34;92944.69;5048389;28;20086;-66
2023/01/19 11:39:11;;;;;;;13.25;5.95;;;;;;;-0.73;75.42;92957.31;5041751;28;20040;-65
2023/01/19 11:41:39;;;;;;;12.13;5.32;;;;;;;-0.57;76.09;92946.34;5049402;28;20400;-65
2023/01/19 11:44:22;;;;;;;9.82;4.35;;;;;;;-0.95;79.94;92948.22;5049297;28;20098;-65